sensor_id;sensor_type;location;lat;lon;timestamp;temperature;humidity
1468;DHT22;727;48.892;9.544;2023-12-20T00:02:10;4.00;99.90
1468;DHT22;727;48.892;9.544;2023-12-20T00:04:37;4.00;99.90
1468;DHT22;727;48.892;9.544;2023-12-20T00:07:04;4.00;99.90
1468;DHT22;727;48.892;9.544;2023-12-20T00:09:31;4.00;99.90
1468;DHT22;727;48.892;9.544;2023-12-20T00:11:59;4.00;99.90
1468;DHT22;727;48.892;9.544;2023-12-20T00:14:25;4.10;99.90
1468;DHT22;727;48.892;9.544;2023-12-20T00:16:52;4.10;99.90
1468;DHT22;727;48.892;9.544;2023-12-20T00:19:19;4.10;99.90
1468;DHT22;727;48.892;9.544;2023-12-20T00:21:46;4.10;99.90
1468;DHT22;727;48.892;9.544;2023-12-20T00:24:12;4.10;99.90
1468;DHT22;727;48.892;9.544;2023-12-20T00:26:39;4.10;99.90
1468;DHT22;727;48.892;9.544;2023-12-20T00:29:07;4.10;99.90
1468;DHT22;727;48.892;9.544;2023-12-20T00:31:34;4.20;99.90
1468;DHT22;727;48.892;9.544;2023-12-20T00:34:01;4.20;99.90
1468;DHT22;727;48.892;9.544;2023-12-20T00:36:28;4.20;99.90
1468;DHT22;727;48.892;9.544;2023-12-20T00:38:54;4.20;99.90
1468;DHT22;727;48.892;9.544;2023-12-20T00:41:21;4.30;99.90
1468;DHT22;727;48.892;9.544;2023-12-20T00:43:48;4.30;99.90
1468;DHT22;727;48.892;9.544;2023-12-20T00:46:16;4.30;99.90
1468;DHT22;727;48.892;9.544;2023-12-20T00:48:42;4.30;99.90
1468;DHT22;727;48.892;9.544;2023-12-20T00:51:11;4.30;99.90
1468;DHT22;727;48.892;9.544;2023-12-20T00:53:37;4.30;99.90
1468;DHT22;727;48.892;9.544;2023-12-20T00:56:04;4.30;99.90
1468;DHT22;727;48.892;9.544;2023-12-20T00:58:31;4.30;99.90
1468;DHT22;727;48.892;9.544;2023-12-20T01:00:58;4.20;99.90
1468;DHT22;727;48.892;9.544;2023-12-20T01:03:26;4.30;99.90
1468;DHT22;727;48.892;9.544;2023-12-20T01:05:53;4.20;99.90
1468;DHT22;727;48.892;9.544;2023-12-20T01:08:20;4.30;99.90
1468;DHT22;727;48.892;9.544;2023-12-20T01:10:46;4.30;99.90
1468;DHT22;727;48.892;9.544;2023-12-20T01:13:13;4.30;99.90
1468;DHT22;727;48.892;9.544;2023-12-20T01:15:40;4.30;99.90
1468;DHT22;727;48.892;9.544;2023-12-20T01:18:07;4.30;99.90
1468;DHT22;727;48.892;9.544;2023-12-20T01:20:35;4.40;99.90
1468;DHT22;727;48.892;9.544;2023-12-20T01:23:02;4.30;99.90
1468;DHT22;727;48.892;9.544;2023-12-20T01:25:29;4.40;99.90
1468;DHT22;727;48.892;9.544;2023-12-20T01:27:55;4.40;99.90
1468;DHT22;727;48.892;9.544;2023-12-20T01:30:22;4.40;99.90
1468;DHT22;727;48.892;9.544;2023-12-20T01:32:49;4.40;99.90
1468;DHT22;727;48.892;9.544;2023-12-20T01:35:16;4.40;99.90
1468;DHT22;727;48.892;9.544;2023-12-20T01:37:44;4.40;99.90
1468;DHT22;727;48.892;9.544;2023-12-20T01:40:11;4.40;99.90
1468;DHT22;727;48.892;9.544;2023-12-20T01:42:38;4.50;99.90
1468;DHT22;727;48.892;9.544;2023-12-20T01:45:05;4.50;99.90
1468;DHT22;727;48.892;9.544;2023-12-20T01:47:32;4.50;99.90
1468;DHT22;727;48.892;9.544;2023-12-20T01:49:59;4.50;99.90
1468;DHT22;727;48.892;9.544;2023-12-20T01:52:29;4.40;99.90
1468;DHT22;727;48.892;9.544;2023-12-20T01:54:57;4.50;99.90
1468;DHT22;727;48.892;9.544;2023-12-20T01:57:28;4.50;99.90
1468;DHT22;727;48.892;9.544;2023-12-20T01:59:55;4.40;99.90
1468;DHT22;727;48.892;9.544;2023-12-20T02:02:23;4.40;99.90
1468;DHT22;727;48.892;9.544;2023-12-20T02:04:49;4.50;99.90
1468;DHT22;727;48.892;9.544;2023-12-20T02:07:17;4.50;99.90
1468;DHT22;727;48.892;9.544;2023-12-20T02:09:45;4.50;99.90
1468;DHT22;727;48.892;9.544;2023-12-20T02:12:13;4.60;99.90
1468;DHT22;727;48.892;9.544;2023-12-20T02:14:39;4.60;99.90
1468;DHT22;727;48.892;9.544;2023-12-20T02:17:06;4.60;99.90
1468;DHT22;727;48.892;9.544;2023-12-20T02:19:33;4.60;99.90
1468;DHT22;727;48.892;9.544;2023-12-20T02:22:08;4.60;99.90
1468;DHT22;727;48.892;9.544;2023-12-20T02:24:35;4.60;99.90
1468;DHT22;727;48.892;9.544;2023-12-20T02:27:03;4.60;99.90
1468;DHT22;727;48.892;9.544;2023-12-20T02:29:30;4.60;99.90
1468;DHT22;727;48.892;9.544;2023-12-20T02:31:57;4.60;99.90
1468;DHT22;727;48.892;9.544;2023-12-20T02:34:24;4.60;99.90
1468;DHT22;727;48.892;9.544;2023-12-20T02:36:51;4.60;99.90
1468;DHT22;727;48.892;9.544;2023-12-20T02:39:19;4.60;99.90
1468;DHT22;727;48.892;9.544;2023-12-20T02:41:47;4.60;99.90
1468;DHT22;727;48.892;9.544;2023-12-20T02:44:14;4.60;99.90
1468;DHT22;727;48.892;9.544;2023-12-20T02:46:41;4.70;99.90
1468;DHT22;727;48.892;9.544;2023-12-20T02:49:07;4.70;99.90
1468;DHT22;727;48.892;9.544;2023-12-20T02:51:34;4.70;99.90
1468;DHT22;727;48.892;9.544;2023-12-20T02:54:03;4.80;99.90
1468;DHT22;727;48.892;9.544;2023-12-20T02:58:58;4.80;99.90
1468;DHT22;727;48.892;9.544;2023-12-20T03:01:25;4.90;99.90
1468;DHT22;727;48.892;9.544;2023-12-20T03:03:51;5.00;99.90
1468;DHT22;727;48.892;9.544;2023-12-20T03:06:18;5.10;99.90
1468;DHT22;727;48.892;9.544;2023-12-20T03:08:46;5.30;99.90
1468;DHT22;727;48.892;9.544;2023-12-20T03:11:13;5.40;99.90
1468;DHT22;727;48.892;9.544;2023-12-20T03:13:41;5.60;99.90
1468;DHT22;727;48.892;9.544;2023-12-20T03:16:11;5.70;99.90
1468;DHT22;727;48.892;9.544;2023-12-20T03:18:39;5.80;99.90
1468;DHT22;727;48.892;9.544;2023-12-20T03:21:06;5.80;99.90
1468;DHT22;727;48.892;9.544;2023-12-20T03:23:32;5.80;99.90
1468;DHT22;727;48.892;9.544;2023-12-20T03:25:59;5.90;99.90
1468;DHT22;727;48.892;9.544;2023-12-20T03:28:27;5.90;99.90
1468;DHT22;727;48.892;9.544;2023-12-20T03:30:55;5.90;99.90
1468;DHT22;727;48.892;9.544;2023-12-20T03:33:22;5.90;99.90
1468;DHT22;727;48.892;9.544;2023-12-20T03:35:48;5.90;99.90
1468;DHT22;727;48.892;9.544;2023-12-20T03:38:15;5.90;99.90
1468;DHT22;727;48.892;9.544;2023-12-20T03:40:42;5.90;99.90
1468;DHT22;727;48.892;9.544;2023-12-20T03:43:09;5.90;99.90
1468;DHT22;727;48.892;9.544;2023-12-20T03:45:35;5.90;99.90
1468;DHT22;727;48.892;9.544;2023-12-20T03:48:04;5.90;99.90
1468;DHT22;727;48.892;9.544;2023-12-20T03:50:31;5.90;99.90
1468;DHT22;727;48.892;9.544;2023-12-20T03:52:58;5.90;99.90
1468;DHT22;727;48.892;9.544;2023-12-20T03:55:25;5.90;99.90
1468;DHT22;727;48.892;9.544;2023-12-20T03:57:51;5.90;99.90
1468;DHT22;727;48.892;9.544;2023-12-20T04:00:18;5.90;99.90
1468;DHT22;727;48.892;9.544;2023-12-20T04:02:45;5.90;99.90
1468;DHT22;727;48.892;9.544;2023-12-20T04:05:13;5.90;99.90
1468;DHT22;727;48.892;9.544;2023-12-20T04:07:40;5.90;99.90
1468;DHT22;727;48.892;9.544;2023-12-20T04:10:07;5.90;99.90
1468;DHT22;727;48.892;9.544;2023-12-20T04:12:34;5.90;99.90
1468;DHT22;727;48.892;9.544;2023-12-20T04:15:01;5.90;99.90
1468;DHT22;727;48.892;9.544;2023-12-20T04:17:32;5.90;99.90
1468;DHT22;727;48.892;9.544;2023-12-20T04:19:58;5.90;99.90
1468;DHT22;727;48.892;9.544;2023-12-20T04:22:26;5.90;99.90
1468;DHT22;727;48.892;9.544;2023-12-20T04:24:53;5.90;99.90
1468;DHT22;727;48.892;9.544;2023-12-20T04:27:20;5.90;99.90
1468;DHT22;727;48.892;9.544;2023-12-20T04:29:46;5.80;99.90
1468;DHT22;727;48.892;9.544;2023-12-20T04:32:13;5.80;99.90
1468;DHT22;727;48.892;9.544;2023-12-20T04:34:40;5.80;99.90
1468;DHT22;727;48.892;9.544;2023-12-20T04:37:06;5.90;99.90
1468;DHT22;727;48.892;9.544;2023-12-20T04:39:34;5.90;99.90
1468;DHT22;727;48.892;9.544;2023-12-20T04:42:01;5.80;99.90
1468;DHT22;727;48.892;9.544;2023-12-20T04:44:28;5.80;99.90
1468;DHT22;727;48.892;9.544;2023-12-20T04:46:55;5.80;99.90
1468;DHT22;727;48.892;9.544;2023-12-20T04:49:22;5.80;99.90
1468;DHT22;727;48.892;9.544;2023-12-20T04:51:49;5.80;99.90
1468;DHT22;727;48.892;9.544;2023-12-20T04:54:16;5.80;99.90
1468;DHT22;727;48.892;9.544;2023-12-20T04:56:44;5.80;99.90
1468;DHT22;727;48.892;9.544;2023-12-20T04:59:11;5.70;99.90
1468;DHT22;727;48.892;9.544;2023-12-20T05:01:37;5.70;99.90
1468;DHT22;727;48.892;9.544;2023-12-20T05:04:04;5.70;99.90
1468;DHT22;727;48.892;9.544;2023-12-20T05:06:31;5.70;99.90
1468;DHT22;727;48.892;9.544;2023-12-20T05:08:58;5.70;99.90
1468;DHT22;727;48.892;9.544;2023-12-20T05:11:25;5.70;99.90
1468;DHT22;727;48.892;9.544;2023-12-20T05:13:53;5.70;99.90
1468;DHT22;727;48.892;9.544;2023-12-20T05:16:20;5.80;99.90
1468;DHT22;727;48.892;9.544;2023-12-20T05:18:48;5.70;99.90
1468;DHT22;727;48.892;9.544;2023-12-20T05:21:17;5.70;99.90
1468;DHT22;727;48.892;9.544;2023-12-20T05:23:45;5.70;99.90
1468;DHT22;727;48.892;9.544;2023-12-20T05:26:11;5.70;99.90
1468;DHT22;727;48.892;9.544;2023-12-20T05:28:38;5.70;99.90
1468;DHT22;727;48.892;9.544;2023-12-20T05:31:06;5.80;99.90
1468;DHT22;727;48.892;9.544;2023-12-20T05:33:33;5.80;99.90
1468;DHT22;727;48.892;9.544;2023-12-20T05:36:00;5.80;99.90
1468;DHT22;727;48.892;9.544;2023-12-20T05:38:27;5.80;99.90
1468;DHT22;727;48.892;9.544;2023-12-20T05:40:53;5.80;99.90
1468;DHT22;727;48.892;9.544;2023-12-20T05:43:20;5.80;99.90
1468;DHT22;727;48.892;9.544;2023-12-20T05:45:47;5.70;99.90
1468;DHT22;727;48.892;9.544;2023-12-20T05:48:15;5.70;99.90
1468;DHT22;727;48.892;9.544;2023-12-20T05:50:41;5.80;99.90
1468;DHT22;727;48.892;9.544;2023-12-20T05:53:08;5.80;99.90
1468;DHT22;727;48.892;9.544;2023-12-20T05:55:35;5.80;99.90
1468;DHT22;727;48.892;9.544;2023-12-20T05:58:01;5.70;99.90
1468;DHT22;727;48.892;9.544;2023-12-20T06:00:28;5.80;99.90
1468;DHT22;727;48.892;9.544;2023-12-20T06:02:56;5.80;99.90
1468;DHT22;727;48.892;9.544;2023-12-20T06:05:24;5.80;99.90
1468;DHT22;727;48.892;9.544;2023-12-20T06:07:51;5.80;99.90
1468;DHT22;727;48.892;9.544;2023-12-20T06:10:18;5.80;99.90
1468;DHT22;727;48.892;9.544;2023-12-20T06:12:45;5.80;99.90
1468;DHT22;727;48.892;9.544;2023-12-20T06:15:12;5.70;99.90
1468;DHT22;727;48.892;9.544;2023-12-20T06:17:39;5.80;99.90
1468;DHT22;727;48.892;9.544;2023-12-20T06:20:08;5.80;99.90
1468;DHT22;727;48.892;9.544;2023-12-20T06:22:36;5.80;99.90
1468;DHT22;727;48.892;9.544;2023-12-20T06:25:03;5.80;99.90
1468;DHT22;727;48.892;9.544;2023-12-20T06:27:30;5.80;99.90
1468;DHT22;727;48.892;9.544;2023-12-20T06:29:58;5.80;99.90
1468;DHT22;727;48.892;9.544;2023-12-20T06:32:24;5.90;99.90
1468;DHT22;727;48.892;9.544;2023-12-20T06:34:51;5.90;99.90
1468;DHT22;727;48.892;9.544;2023-12-20T06:37:18;5.90;99.90
1468;DHT22;727;48.892;9.544;2023-12-20T06:39:46;5.90;99.90
1468;DHT22;727;48.892;9.544;2023-12-20T06:42:13;5.90;99.90
1468;DHT22;727;48.892;9.544;2023-12-20T06:44:39;5.90;99.90
1468;DHT22;727;48.892;9.544;2023-12-20T06:47:06;6.00;99.90
1468;DHT22;727;48.892;9.544;2023-12-20T06:49:33;6.00;99.90
1468;DHT22;727;48.892;9.544;2023-12-20T06:52:00;6.00;99.90
1468;DHT22;727;48.892;9.544;2023-12-20T06:54:26;6.00;99.90
1468;DHT22;727;48.892;9.544;2023-12-20T06:56:54;6.00;99.90
1468;DHT22;727;48.892;9.544;2023-12-20T06:59:21;6.00;99.90
1468;DHT22;727;48.892;9.544;2023-12-20T07:01:48;6.00;99.90
1468;DHT22;727;48.892;9.544;2023-12-20T07:04:15;6.00;99.90
1468;DHT22;727;48.892;9.544;2023-12-20T07:06:45;6.10;99.90
1468;DHT22;727;48.892;9.544;2023-12-20T07:09:13;6.10;99.90
1468;DHT22;727;48.892;9.544;2023-12-20T07:11:39;6.10;99.90
1468;DHT22;727;48.892;9.544;2023-12-20T07:14:07;6.10;99.90
1468;DHT22;727;48.892;9.544;2023-12-20T07:16:34;6.10;99.90
1468;DHT22;727;48.892;9.544;2023-12-20T07:19:01;6.10;99.90
1468;DHT22;727;48.892;9.544;2023-12-20T07:21:28;6.10;99.90
1468;DHT22;727;48.892;9.544;2023-12-20T07:23:55;6.10;99.90
1468;DHT22;727;48.892;9.544;2023-12-20T07:26:22;6.10;99.90
1468;DHT22;727;48.892;9.544;2023-12-20T07:28:48;6.10;99.90
1468;DHT22;727;48.892;9.544;2023-12-20T07:31:17;6.10;99.90
1468;DHT22;727;48.892;9.544;2023-12-20T07:33:43;6.10;99.90
1468;DHT22;727;48.892;9.544;2023-12-20T07:36:10;6.10;99.90
1468;DHT22;727;48.892;9.544;2023-12-20T07:38:38;6.10;99.90
1468;DHT22;727;48.892;9.544;2023-12-20T07:41:04;6.20;99.90
1468;DHT22;727;48.892;9.544;2023-12-20T07:43:31;6.20;99.90
1468;DHT22;727;48.892;9.544;2023-12-20T07:46:04;6.20;99.90
1468;DHT22;727;48.892;9.544;2023-12-20T07:48:32;6.20;99.90
1468;DHT22;727;48.892;9.544;2023-12-20T07:50:59;6.20;99.90
1468;DHT22;727;48.892;9.544;2023-12-20T07:53:25;6.20;99.90
1468;DHT22;727;48.892;9.544;2023-12-20T07:55:52;6.20;99.90
1468;DHT22;727;48.892;9.544;2023-12-20T07:58:20;6.20;99.90
1468;DHT22;727;48.892;9.544;2023-12-20T08:00:47;6.20;99.90
1468;DHT22;727;48.892;9.544;2023-12-20T08:03:14;6.20;99.90
1468;DHT22;727;48.892;9.544;2023-12-20T08:05:43;6.20;99.90
1468;DHT22;727;48.892;9.544;2023-12-20T08:08:09;6.20;99.90
1468;DHT22;727;48.892;9.544;2023-12-20T08:10:36;6.20;99.90
1468;DHT22;727;48.892;9.544;2023-12-20T08:13:03;6.20;99.90
1468;DHT22;727;48.892;9.544;2023-12-20T08:15:30;6.20;99.90
1468;DHT22;727;48.892;9.544;2023-12-20T08:17:57;6.20;99.90
1468;DHT22;727;48.892;9.544;2023-12-20T08:20:23;6.20;99.90
1468;DHT22;727;48.892;9.544;2023-12-20T08:22:51;6.20;99.90
1468;DHT22;727;48.892;9.544;2023-12-20T08:25:18;6.20;99.90
1468;DHT22;727;48.892;9.544;2023-12-20T08:27:45;6.20;99.90
1468;DHT22;727;48.892;9.544;2023-12-20T08:30:12;6.20;99.90
1468;DHT22;727;48.892;9.544;2023-12-20T08:32:39;6.30;99.90
1468;DHT22;727;48.892;9.544;2023-12-20T08:35:06;6.30;99.90
1468;DHT22;727;48.892;9.544;2023-12-20T08:37:33;6.30;99.90
1468;DHT22;727;48.892;9.544;2023-12-20T08:40:01;6.30;99.90
1468;DHT22;727;48.892;9.544;2023-12-20T08:42:28;6.30;99.90
1468;DHT22;727;48.892;9.544;2023-12-20T08:44:56;6.30;99.90
1468;DHT22;727;48.892;9.544;2023-12-20T08:47:24;6.40;99.90
1468;DHT22;727;48.892;9.544;2023-12-20T08:49:50;6.30;99.90
1468;DHT22;727;48.892;9.544;2023-12-20T08:52:21;6.30;99.90
1468;DHT22;727;48.892;9.544;2023-12-20T08:54:48;6.30;99.90
1468;DHT22;727;48.892;9.544;2023-12-20T08:57:19;6.30;99.90
1468;DHT22;727;48.892;9.544;2023-12-20T08:59:46;6.50;99.90
1468;DHT22;727;48.892;9.544;2023-12-20T09:02:13;6.70;99.90
1468;DHT22;727;48.892;9.544;2023-12-20T09:04:40;6.80;99.90
1468;DHT22;727;48.892;9.544;2023-12-20T09:07:14;6.90;99.90
1468;DHT22;727;48.892;9.544;2023-12-20T09:09:47;6.90;99.90
1468;DHT22;727;48.892;9.544;2023-12-20T09:12:13;7.00;99.90
1468;DHT22;727;48.892;9.544;2023-12-20T09:14:41;7.20;99.90
1468;DHT22;727;48.892;9.544;2023-12-20T09:17:08;7.60;99.90
1468;DHT22;727;48.892;9.544;2023-12-20T09:19:37;7.70;99.90
1468;DHT22;727;48.892;9.544;2023-12-20T09:22:03;7.70;99.90
1468;DHT22;727;48.892;9.544;2023-12-20T09:24:30;8.70;99.90
1468;DHT22;727;48.892;9.544;2023-12-20T09:26:57;10.30;99.90
1468;DHT22;727;48.892;9.544;2023-12-20T09:29:24;10.80;99.90
1468;DHT22;727;48.892;9.544;2023-12-20T09:31:52;11.20;99.90
1468;DHT22;727;48.892;9.544;2023-12-20T09:34:18;11.10;99.90
1468;DHT22;727;48.892;9.544;2023-12-20T09:36:45;10.80;99.90
1468;DHT22;727;48.892;9.544;2023-12-20T09:39:13;11.00;99.90
1468;DHT22;727;48.892;9.544;2023-12-20T09:41:43;11.80;99.90
1468;DHT22;727;48.892;9.544;2023-12-20T09:44:14;12.20;99.20
1468;DHT22;727;48.892;9.544;2023-12-20T09:46:44;12.50;98.50
1468;DHT22;727;48.892;9.544;2023-12-20T09:49:13;13.60;96.80
1468;DHT22;727;48.892;9.544;2023-12-20T09:51:40;14.10;94.50
1468;DHT22;727;48.892;9.544;2023-12-20T09:54:08;14.50;93.30
1468;DHT22;727;48.892;9.544;2023-12-20T09:56:37;14.70;92.80
1468;DHT22;727;48.892;9.544;2023-12-20T09:59:04;15.10;91.70
1468;DHT22;727;48.892;9.544;2023-12-20T10:01:31;15.40;90.50
1468;DHT22;727;48.892;9.544;2023-12-20T10:04:00;16.10;90.90
1468;DHT22;727;48.892;9.544;2023-12-20T10:06:28;15.90;87.70
1468;DHT22;727;48.892;9.544;2023-12-20T10:08:57;16.90;85.40
1468;DHT22;727;48.892;9.544;2023-12-20T10:11:27;16.30;82.40
1468;DHT22;727;48.892;9.544;2023-12-20T10:13:59;15.20;83.70
1468;DHT22;727;48.892;9.544;2023-12-20T10:16:26;15.10;86.50
1468;DHT22;727;48.892;9.544;2023-12-20T10:18:53;16.10;85.90
1468;DHT22;727;48.892;9.544;2023-12-20T10:21:19;16.80;81.30
1468;DHT22;727;48.892;9.544;2023-12-20T10:23:48;16.90;79.00
1468;DHT22;727;48.892;9.544;2023-12-20T10:26:19;17.10;79.00
1468;DHT22;727;48.892;9.544;2023-12-20T10:28:49;17.10;76.40
1468;DHT22;727;48.892;9.544;2023-12-20T10:31:26;17.00;75.50
1468;DHT22;727;48.892;9.544;2023-12-20T10:33:53;16.00;75.60
1468;DHT22;727;48.892;9.544;2023-12-20T10:36:19;14.30;80.40
1468;DHT22;727;48.892;9.544;2023-12-20T10:38:50;13.30;82.80
1468;DHT22;727;48.892;9.544;2023-12-20T10:41:25;12.20;86.40
1468;DHT22;727;48.892;9.544;2023-12-20T10:44:02;11.20;89.10
1468;DHT22;727;48.892;9.544;2023-12-20T10:46:30;10.70;91.30
1468;DHT22;727;48.892;9.544;2023-12-20T10:48:58;10.40;91.60
1468;DHT22;727;48.892;9.544;2023-12-20T10:51:25;10.00;92.60
1468;DHT22;727;48.892;9.544;2023-12-20T10:53:55;9.50;93.90
1468;DHT22;727;48.892;9.544;2023-12-20T10:56:22;9.40;94.30
1468;DHT22;727;48.892;9.544;2023-12-20T10:58:52;9.40;95.10
1468;DHT22;727;48.892;9.544;2023-12-20T11:01:28;9.40;94.60
1468;DHT22;727;48.892;9.544;2023-12-20T11:03:57;10.10;95.10
1468;DHT22;727;48.892;9.544;2023-12-20T11:06:32;12.00;91.80
1468;DHT22;727;48.892;9.544;2023-12-20T11:09:10;13.30;88.10
1468;DHT22;727;48.892;9.544;2023-12-20T11:11:51;13.50;83.60
1468;DHT22;727;48.892;9.544;2023-12-20T11:14:23;14.30;82.70
1468;DHT22;727;48.892;9.544;2023-12-20T11:17:05;15.40;77.60
1468;DHT22;727;48.892;9.544;2023-12-20T11:19:32;15.60;75.90
1468;DHT22;727;48.892;9.544;2023-12-20T11:21:58;15.90;76.70
1468;DHT22;727;48.892;9.544;2023-12-20T11:24:27;15.50;74.40
1468;DHT22;727;48.892;9.544;2023-12-20T11:26:56;14.10;76.00
1468;DHT22;727;48.892;9.544;2023-12-20T11:29:30;12.50;80.10
1468;DHT22;727;48.892;9.544;2023-12-20T11:31:57;11.30;84.70
1468;DHT22;727;48.892;9.544;2023-12-20T11:34:27;10.60;87.40
1468;DHT22;727;48.892;9.544;2023-12-20T11:36:57;10.10;89.80
1468;DHT22;727;48.892;9.544;2023-12-20T11:39:27;9.90;91.40
1468;DHT22;727;48.892;9.544;2023-12-20T11:41:55;10.40;91.10
1468;DHT22;727;48.892;9.544;2023-12-20T11:44:24;10.80;90.00
1468;DHT22;727;48.892;9.544;2023-12-20T11:46:51;10.80;89.30
1468;DHT22;727;48.892;9.544;2023-12-20T11:49:23;10.50;89.80
1468;DHT22;727;48.892;9.544;2023-12-20T11:51:49;10.10;90.80
1468;DHT22;727;48.892;9.544;2023-12-20T11:54:16;9.50;91.70
1468;DHT22;727;48.892;9.544;2023-12-20T11:56:45;9.00;92.30
1468;DHT22;727;48.892;9.544;2023-12-20T11:59:12;8.50;92.80
1468;DHT22;727;48.892;9.544;2023-12-20T12:01:39;8.10;93.50
1468;DHT22;727;48.892;9.544;2023-12-20T12:04:06;7.70;93.60
1468;DHT22;727;48.892;9.544;2023-12-20T12:06:33;7.50;94.30
1468;DHT22;727;48.892;9.544;2023-12-20T12:09:00;7.40;95.00
1468;DHT22;727;48.892;9.544;2023-12-20T12:11:27;7.30;95.10
1468;DHT22;727;48.892;9.544;2023-12-20T12:13:55;7.20;95.70
1468;DHT22;727;48.892;9.544;2023-12-20T12:16:22;7.00;95.80
1468;DHT22;727;48.892;9.544;2023-12-20T12:18:56;7.00;96.30
1468;DHT22;727;48.892;9.544;2023-12-20T12:21:23;7.00;96.90
1468;DHT22;727;48.892;9.544;2023-12-20T12:23:49;7.00;97.40
1468;DHT22;727;48.892;9.544;2023-12-20T12:26:16;6.90;97.70
1468;DHT22;727;48.892;9.544;2023-12-20T12:28:43;6.90;98.00
1468;DHT22;727;48.892;9.544;2023-12-20T12:31:14;6.90;98.50
1468;DHT22;727;48.892;9.544;2023-12-20T12:33:42;7.00;98.90
1468;DHT22;727;48.892;9.544;2023-12-20T12:36:09;7.00;98.70
1468;DHT22;727;48.892;9.544;2023-12-20T12:38:36;7.10;98.90
1468;DHT22;727;48.892;9.544;2023-12-20T12:41:04;7.10;99.20
1468;DHT22;727;48.892;9.544;2023-12-20T12:43:32;7.20;98.80
1468;DHT22;727;48.892;9.544;2023-12-20T12:45:59;7.20;98.80
1468;DHT22;727;48.892;9.544;2023-12-20T12:48:27;7.20;98.80
1468;DHT22;727;48.892;9.544;2023-12-20T12:50:54;7.20;98.40
1468;DHT22;727;48.892;9.544;2023-12-20T12:53:24;7.30;98.40
1468;DHT22;727;48.892;9.544;2023-12-20T12:55:52;7.30;98.40
1468;DHT22;727;48.892;9.544;2023-12-20T12:58:19;7.40;98.60
1468;DHT22;727;48.892;9.544;2023-12-20T13:00:45;7.40;98.60
1468;DHT22;727;48.892;9.544;2023-12-20T13:03:12;7.40;98.50
1468;DHT22;727;48.892;9.544;2023-12-20T13:05:40;7.30;98.30
1468;DHT22;727;48.892;9.544;2023-12-20T13:08:07;7.30;98.60
1468;DHT22;727;48.892;9.544;2023-12-20T13:10:35;7.30;98.20
1468;DHT22;727;48.892;9.544;2023-12-20T13:13:01;7.20;98.40
1468;DHT22;727;48.892;9.544;2023-12-20T13:15:29;7.20;98.60
1468;DHT22;727;48.892;9.544;2023-12-20T13:17:56;7.20;99.20
1468;DHT22;727;48.892;9.544;2023-12-20T13:20:23;7.20;98.80
1468;DHT22;727;48.892;9.544;2023-12-20T13:22:52;7.20;99.10
1468;DHT22;727;48.892;9.544;2023-12-20T13:25:19;7.20;99.40
1468;DHT22;727;48.892;9.544;2023-12-20T13:27:45;7.20;99.40
1468;DHT22;727;48.892;9.544;2023-12-20T13:30:12;7.10;99.50
1468;DHT22;727;48.892;9.544;2023-12-20T13:32:40;7.10;99.80
1468;DHT22;727;48.892;9.544;2023-12-20T13:35:07;7.10;99.90
1468;DHT22;727;48.892;9.544;2023-12-20T13:37:34;7.20;99.90
1468;DHT22;727;48.892;9.544;2023-12-20T13:40:03;7.20;99.60
1468;DHT22;727;48.892;9.544;2023-12-20T13:42:30;7.10;99.90
1468;DHT22;727;48.892;9.544;2023-12-20T13:44:56;7.10;99.90
1468;DHT22;727;48.892;9.544;2023-12-20T13:47:23;7.10;99.90
1468;DHT22;727;48.892;9.544;2023-12-20T13:49:50;7.10;99.90
1468;DHT22;727;48.892;9.544;2023-12-20T13:52:16;7.00;99.90
1468;DHT22;727;48.892;9.544;2023-12-20T13:54:44;7.00;99.90
1468;DHT22;727;48.892;9.544;2023-12-20T13:57:16;6.90;99.90
1468;DHT22;727;48.892;9.544;2023-12-20T13:59:42;6.90;99.90
1468;DHT22;727;48.892;9.544;2023-12-20T14:02:10;6.90;99.90
1468;DHT22;727;48.892;9.544;2023-12-20T14:04:37;6.80;99.90
1468;DHT22;727;48.892;9.544;2023-12-20T14:07:05;6.80;99.90
1468;DHT22;727;48.892;9.544;2023-12-20T14:09:33;6.80;99.90
1468;DHT22;727;48.892;9.544;2023-12-20T14:11:59;6.80;99.90
1468;DHT22;727;48.892;9.544;2023-12-20T14:14:27;6.80;99.90
1468;DHT22;727;48.892;9.544;2023-12-20T14:16:55;6.80;99.90
1468;DHT22;727;48.892;9.544;2023-12-20T14:19:22;6.80;99.90
1468;DHT22;727;48.892;9.544;2023-12-20T14:21:48;6.80;99.90
1468;DHT22;727;48.892;9.544;2023-12-20T14:24:15;6.60;99.90
1468;DHT22;727;48.892;9.544;2023-12-20T14:26:42;6.40;99.90
1468;DHT22;727;48.892;9.544;2023-12-20T14:29:08;6.40;99.90
1468;DHT22;727;48.892;9.544;2023-12-20T14:31:37;6.40;99.90
1468;DHT22;727;48.892;9.544;2023-12-20T14:34:04;6.40;99.90
1468;DHT22;727;48.892;9.544;2023-12-20T14:36:31;6.30;99.90
1468;DHT22;727;48.892;9.544;2023-12-20T14:38:57;6.30;99.90
1468;DHT22;727;48.892;9.544;2023-12-20T14:41:24;6.20;99.90
1468;DHT22;727;48.892;9.544;2023-12-20T14:43:51;6.20;99.90
1468;DHT22;727;48.892;9.544;2023-12-20T14:46:19;6.10;99.90
1468;DHT22;727;48.892;9.544;2023-12-20T14:48:47;6.10;99.90
1468;DHT22;727;48.892;9.544;2023-12-20T14:51:15;6.10;99.90
1468;DHT22;727;48.892;9.544;2023-12-20T14:53:41;6.10;99.90
1468;DHT22;727;48.892;9.544;2023-12-20T14:56:08;6.00;99.90
1468;DHT22;727;48.892;9.544;2023-12-20T14:58:35;6.00;99.90
1468;DHT22;727;48.892;9.544;2023-12-20T15:01:02;6.00;99.90
1468;DHT22;727;48.892;9.544;2023-12-20T15:03:29;5.90;99.90
1468;DHT22;727;48.892;9.544;2023-12-20T15:05:57;5.90;99.90
1468;DHT22;727;48.892;9.544;2023-12-20T15:08:24;5.80;99.90
1468;DHT22;727;48.892;9.544;2023-12-20T15:10:54;5.80;99.90
1468;DHT22;727;48.892;9.544;2023-12-20T15:13:20;5.70;99.90
1468;DHT22;727;48.892;9.544;2023-12-20T15:15:47;5.70;99.90
1468;DHT22;727;48.892;9.544;2023-12-20T15:18:14;5.70;99.90
1468;DHT22;727;48.892;9.544;2023-12-20T15:20:40;5.70;99.90
1468;DHT22;727;48.892;9.544;2023-12-20T15:23:10;5.70;99.90
1468;DHT22;727;48.892;9.544;2023-12-20T15:25:37;5.60;99.90
1468;DHT22;727;48.892;9.544;2023-12-20T15:28:04;5.60;99.90
1468;DHT22;727;48.892;9.544;2023-12-20T15:30:31;5.60;99.90
1468;DHT22;727;48.892;9.544;2023-12-20T15:32:57;5.70;99.90
1468;DHT22;727;48.892;9.544;2023-12-20T15:35:25;5.70;99.90
1468;DHT22;727;48.892;9.544;2023-12-20T15:37:52;5.70;99.90
1468;DHT22;727;48.892;9.544;2023-12-20T15:40:20;5.70;99.90
1468;DHT22;727;48.892;9.544;2023-12-20T15:42:46;5.70;99.90
1468;DHT22;727;48.892;9.544;2023-12-20T15:45:13;5.60;99.90
1468;DHT22;727;48.892;9.544;2023-12-20T15:47:40;5.60;99.90
1468;DHT22;727;48.892;9.544;2023-12-20T15:50:07;5.60;99.90
1468;DHT22;727;48.892;9.544;2023-12-20T15:52:34;5.60;99.90
1468;DHT22;727;48.892;9.544;2023-12-20T15:55:02;5.50;99.90
1468;DHT22;727;48.892;9.544;2023-12-20T15:57:31;5.60;99.90
1468;DHT22;727;48.892;9.544;2023-12-20T15:59:59;5.60;99.90
1468;DHT22;727;48.892;9.544;2023-12-20T16:02:26;5.60;99.90
1468;DHT22;727;48.892;9.544;2023-12-20T16:04:52;5.60;99.90
1468;DHT22;727;48.892;9.544;2023-12-20T16:07:20;5.50;99.90
1468;DHT22;727;48.892;9.544;2023-12-20T16:09:47;5.50;99.90
1468;DHT22;727;48.892;9.544;2023-12-20T16:12:13;5.50;99.90
1468;DHT22;727;48.892;9.544;2023-12-20T16:14:41;5.50;99.90
1468;DHT22;727;48.892;9.544;2023-12-20T16:17:08;5.50;99.90
1468;DHT22;727;48.892;9.544;2023-12-20T16:19:35;5.40;99.90
1468;DHT22;727;48.892;9.544;2023-12-20T16:22:02;5.40;99.90
1468;DHT22;727;48.892;9.544;2023-12-20T16:24:29;5.40;99.90
1468;DHT22;727;48.892;9.544;2023-12-20T16:26:56;5.40;99.90
1468;DHT22;727;48.892;9.544;2023-12-20T16:29:23;5.40;99.90
1468;DHT22;727;48.892;9.544;2023-12-20T16:31:51;5.40;99.90
1468;DHT22;727;48.892;9.544;2023-12-20T16:34:18;5.40;99.90
1468;DHT22;727;48.892;9.544;2023-12-20T16:36:49;5.50;99.90